Terminal Aerodrome Forecast
Issued by NWS

Home | Current Version | Previous Version | Graphics & Text | Print | Product List | Glossary On
Versions: 1 2 3 4 5 6 7 8 9 10 11 12 13 14
000
FTUS43 KBIS 181700
TAFDIK
TAF
KDIK 181720Z 1818/1918 13018G25KT P6SM BKN250
     FM190000 31018KT P6SM VCSH SCT070
     FM190600 27017G27KT P6SM FEW250=

USA.gov is the U.S. government's official web portal to all federal, state and local government web resources and services.